Boise, Idaho
Current Conditions -  °F | °C
As of 3:53 PM on Friday 19 Dec 2014 (Local Time) from KBOI Reporting Station
Light Rain Light Rain  
Wind Chill: 37°   Ceiling: 6000
Heat Index: 42°   Visibility: 10mi
Dew Point: 36°   Wind: 9mph
Humidity: 79%   Direction: 120°ESE
Pressure: 30.05"   Gusts: NA
Location:  43.61°N, 116.2°W
Report Text: KBOI 192253Z 12008KT 10SM -RA FEW044 BKN060 OVC090 06/02 A3005 RMK AO2 RAE01B19 SLP180 P0000 T00560022
Loading
Personal Weather Stations






























Interactive Weather Map New forecast layout! Learn more

10-Day Weather Forecast

Advertisements
Track Severe Weather on mobile